sensor_id;sensor_type;location;lat;lon;timestamp;P1;durP1;ratioP1;P2;durP2;ratioP2
37241;SDS011;23135;51.078;12.108;2022-08-01T00:01:44;3.45;;;1.67;;
37241;SDS011;23135;51.078;12.108;2022-08-01T00:04:10;3.17;;;2.45;;
37241;SDS011;23135;51.078;12.108;2022-08-01T00:06:36;1.77;;;1.67;;
37241;SDS011;23135;51.078;12.108;2022-08-01T00:09:01;3.92;;;2.45;;
37241;SDS011;23135;51.078;12.108;2022-08-01T00:11:27;2.35;;;2.10;;
37241;SDS011;23135;51.078;12.108;2022-08-01T00:13:52;3.70;;;2.15;;
37241;SDS011;23135;51.078;12.108;2022-08-01T00:16:18;1.52;;;1.52;;
37241;SDS011;23135;51.078;12.108;2022-08-01T00:18:43;4.60;;;2.05;;
37241;SDS011;23135;51.078;12.108;2022-08-01T00:21:09;2.58;;;1.40;;
37241;SDS011;23135;51.078;12.108;2022-08-01T00:23:35;4.63;;;1.88;;
37241;SDS011;23135;51.078;12.108;2022-08-01T00:26:01;3.00;;;1.70;;
37241;SDS011;23135;51.078;12.108;2022-08-01T00:28:26;6.50;;;2.08;;
37241;SDS011;23135;51.078;12.108;2022-08-01T00:30:52;2.47;;;1.70;;
37241;SDS011;23135;51.078;12.108;2022-08-01T00:33:17;5.68;;;1.27;;
37241;SDS011;23135;51.078;12.108;2022-08-01T00:35:43;3.63;;;1.95;;
37241;SDS011;23135;51.078;12.108;2022-08-01T00:38:09;1.85;;;1.15;;
37241;SDS011;23135;51.078;12.108;2022-08-01T00:40:35;4.03;;;1.52;;
37241;SDS011;23135;51.078;12.108;2022-08-01T00:43:01;2.90;;;1.40;;
37241;SDS011;23135;51.078;12.108;2022-08-01T00:45:27;2.28;;;2.10;;
37241;SDS011;23135;51.078;12.108;2022-08-01T00:47:52;1.35;;;1.25;;
37241;SDS011;23135;51.078;12.108;2022-08-01T00:50:18;5.28;;;2.03;;
37241;SDS011;23135;51.078;12.108;2022-08-01T00:52:43;4.63;;;1.42;;
37241;SDS011;23135;51.078;12.108;2022-08-01T00:55:09;7.85;;;1.70;;
37241;SDS011;23135;51.078;12.108;2022-08-01T00:57:37;1.70;;;1.50;;
37241;SDS011;23135;51.078;12.108;2022-08-01T01:00:04;1.20;;;1.20;;
37241;SDS011;23135;51.078;12.108;2022-08-01T01:02:30;4.30;;;2.33;;
37241;SDS011;23135;51.078;12.108;2022-08-01T01:04:57;1.23;;;1.20;;
37241;SDS011;23135;51.078;12.108;2022-08-01T01:07:29;2.05;;;0.73;;
37241;SDS011;23135;51.078;12.108;2022-08-01T01:10:19;1.65;;;1.08;;
37241;SDS011;23135;51.078;12.108;2022-08-01T01:13:10;3.58;;;1.17;;
37241;SDS011;23135;51.078;12.108;2022-08-01T01:15:58;3.53;;;0.77;;
37241;SDS011;23135;51.078;12.108;2022-08-01T01:18:30;1.60;;;0.68;;
37241;SDS011;23135;51.078;12.108;2022-08-01T01:31:25;1.23;;;1.20;;
37241;SDS011;23135;51.078;12.108;2022-08-01T01:33:52;1.15;;;0.80;;
37241;SDS011;23135;51.078;12.108;2022-08-01T01:36:20;7.25;;;1.10;;
37241;SDS011;23135;51.078;12.108;2022-08-01T01:38:47;2.28;;;1.13;;
37241;SDS011;23135;51.078;12.108;2022-08-01T01:41:15;4.22;;;0.90;;
37241;SDS011;23135;51.078;12.108;2022-08-01T01:43:43;3.05;;;0.82;;
37241;SDS011;23135;51.078;12.108;2022-08-01T01:46:11;2.88;;;0.77;;
37241;SDS011;23135;51.078;12.108;2022-08-01T01:48:40;1.83;;;0.93;;
37241;SDS011;23135;51.078;12.108;2022-08-01T01:51:08;2.88;;;1.30;;
37241;SDS011;23135;51.078;12.108;2022-08-01T01:53:34;3.08;;;1.20;;
37241;SDS011;23135;51.078;12.108;2022-08-01T01:56:02;2.85;;;0.90;;
37241;SDS011;23135;51.078;12.108;2022-08-01T01:58:28;1.55;;;1.13;;
37241;SDS011;23135;51.078;12.108;2022-08-01T02:00:56;4.38;;;0.95;;
37241;SDS011;23135;51.078;12.108;2022-08-01T02:03:24;5.30;;;1.67;;
37241;SDS011;23135;51.078;12.108;2022-08-01T02:05:51;0.68;;;0.68;;
37241;SDS011;23135;51.078;12.108;2022-08-01T02:08:19;1.15;;;1.05;;
37241;SDS011;23135;51.078;12.108;2022-08-01T02:10:46;2.67;;;1.08;;
37241;SDS011;23135;51.078;12.108;2022-08-01T02:13:31;5.35;;;1.10;;
37241;SDS011;23135;51.078;12.108;2022-08-01T02:15:59;1.42;;;0.73;;
37241;SDS011;23135;51.078;12.108;2022-08-01T02:18:25;0.98;;;0.70;;
37241;SDS011;23135;51.078;12.108;2022-08-01T02:20:52;0.63;;;0.63;;
37241;SDS011;23135;51.078;12.108;2022-08-01T02:23:19;1.90;;;1.38;;
37241;SDS011;23135;51.078;12.108;2022-08-01T02:25:49;2.30;;;1.10;;
37241;SDS011;23135;51.078;12.108;2022-08-01T02:28:22;2.50;;;0.60;;
37241;SDS011;23135;51.078;12.108;2022-08-01T02:31:01;1.98;;;0.85;;
37241;SDS011;23135;51.078;12.108;2022-08-01T02:33:36;1.13;;;0.60;;
37241;SDS011;23135;51.078;12.108;2022-08-01T02:36:04;2.45;;;0.70;;
37241;SDS011;23135;51.078;12.108;2022-08-01T02:38:32;0.85;;;0.70;;
37241;SDS011;23135;51.078;12.108;2022-08-01T02:41:04;0.47;;;0.43;;
37241;SDS011;23135;51.078;12.108;2022-08-01T02:43:34;1.95;;;0.70;;
37241;SDS011;23135;51.078;12.108;2022-08-01T02:46:03;0.63;;;0.30;;
37241;SDS011;23135;51.078;12.108;2022-08-01T02:48:31;2.90;;;0.63;;
37241;SDS011;23135;51.078;12.108;2022-08-01T02:51:00;1.85;;;0.15;;
37241;SDS011;23135;51.078;12.108;2022-08-01T02:53:27;3.30;;;0.60;;
37241;SDS011;23135;51.078;12.108;2022-08-01T02:55:57;0.70;;;0.70;;
37241;SDS011;23135;51.078;12.108;2022-08-01T02:58:24;0.63;;;0.30;;
37241;SDS011;23135;51.078;12.108;2022-08-01T03:00:50;0.88;;;0.88;;
37241;SDS011;23135;51.078;12.108;2022-08-01T03:03:17;0.30;;;0.30;;
37241;SDS011;23135;51.078;12.108;2022-08-01T03:05:44;3.17;;;0.20;;
37241;SDS011;23135;51.078;12.108;2022-08-01T03:08:10;0.77;;;0.30;;
37241;SDS011;23135;51.078;12.108;2022-08-01T03:10:38;0.35;;;0.32;;
37241;SDS011;23135;51.078;12.108;2022-08-01T03:13:06;2.72;;;0.20;;
37241;SDS011;23135;51.078;12.108;2022-08-01T03:15:34;2.05;;;0.70;;
37241;SDS011;23135;51.078;12.108;2022-08-01T03:18:02;0.68;;;0.20;;
37241;SDS011;23135;51.078;12.108;2022-08-01T03:20:30;0.40;;;0.20;;
37241;SDS011;23135;51.078;12.108;2022-08-01T03:22:58;1.35;;;0.43;;
37241;SDS011;23135;51.078;12.108;2022-08-01T03:25:28;1.98;;;0.25;;
37241;SDS011;23135;51.078;12.108;2022-08-01T03:27:56;1.42;;;0.40;;
37241;SDS011;23135;51.078;12.108;2022-08-01T03:30:24;0.55;;;0.50;;
37241;SDS011;23135;51.078;12.108;2022-08-01T03:32:51;1.98;;;0.30;;
37241;SDS011;23135;51.078;12.108;2022-08-01T03:35:17;0.75;;;0.30;;
37241;SDS011;23135;51.078;12.108;2022-08-01T03:37:45;1.55;;;0.68;;
37241;SDS011;23135;51.078;12.108;2022-08-01T03:40:13;3.03;;;0.30;;
37241;SDS011;23135;51.078;12.108;2022-08-01T03:42:47;2.65;;;0.30;;
37241;SDS011;23135;51.078;12.108;2022-08-01T03:45:22;1.05;;;0.73;;
37241;SDS011;23135;51.078;12.108;2022-08-01T03:47:54;2.33;;;0.30;;
37241;SDS011;23135;51.078;12.108;2022-08-01T03:50:25;0.95;;;0.30;;
37241;SDS011;23135;51.078;12.108;2022-08-01T03:52:53;0.52;;;0.13;;
37241;SDS011;23135;51.078;12.108;2022-08-01T03:55:21;2.55;;;0.35;;
37241;SDS011;23135;51.078;12.108;2022-08-01T03:57:48;1.27;;;0.30;;
37241;SDS011;23135;51.078;12.108;2022-08-01T04:00:14;0.30;;;0.20;;
37241;SDS011;23135;51.078;12.108;2022-08-01T04:02:43;1.02;;;0.43;;
37241;SDS011;23135;51.078;12.108;2022-08-01T04:05:10;0.20;;;0.20;;
37241;SDS011;23135;51.078;12.108;2022-08-01T04:07:36;1.95;;;0.35;;
37241;SDS011;23135;51.078;12.108;2022-08-01T04:10:04;0.40;;;0.20;;
37241;SDS011;23135;51.078;12.108;2022-08-01T04:12:30;0.65;;;0.43;;
37241;SDS011;23135;51.078;12.108;2022-08-01T04:14:57;0.45;;;0.17;;
37241;SDS011;23135;51.078;12.108;2022-08-01T04:17:23;0.52;;;0.52;;
37241;SDS011;23135;51.078;12.108;2022-08-01T04:19:49;0.30;;;0.28;;
37241;SDS011;23135;51.078;12.108;2022-08-01T04:22:15;6.68;;;0.50;;
37241;SDS011;23135;51.078;12.108;2022-08-01T04:24:41;1.85;;;0.30;;
37241;SDS011;23135;51.078;12.108;2022-08-01T04:27:15;1.10;;;0.22;;
37241;SDS011;23135;51.078;12.108;2022-08-01T04:29:47;1.05;;;0.30;;
37241;SDS011;23135;51.078;12.108;2022-08-01T04:32:15;1.25;;;0.50;;
37241;SDS011;23135;51.078;12.108;2022-08-01T04:34:43;1.13;;;0.20;;
37241;SDS011;23135;51.078;12.108;2022-08-01T04:37:11;0.47;;;0.30;;
37241;SDS011;23135;51.078;12.108;2022-08-01T04:39:41;1.05;;;0.50;;
37241;SDS011;23135;51.078;12.108;2022-08-01T04:42:08;1.42;;;0.50;;
37241;SDS011;23135;51.078;12.108;2022-08-01T04:44:35;4.10;;;0.25;;
37241;SDS011;23135;51.078;12.108;2022-08-01T04:49:31;0.77;;;0.45;;
37241;SDS011;23135;51.078;12.108;2022-08-01T04:51:58;1.00;;;0.10;;
37241;SDS011;23135;51.078;12.108;2022-08-01T04:54:25;0.17;;;0.17;;
37241;SDS011;23135;51.078;12.108;2022-08-01T04:56:52;0.57;;;0.20;;
37241;SDS011;23135;51.078;12.108;2022-08-01T04:59:20;0.75;;;0.30;;
37241;SDS011;23135;51.078;12.108;2022-08-01T05:02:05;0.38;;;0.30;;
37241;SDS011;23135;51.078;12.108;2022-08-01T05:04:35;3.53;;;0.10;;
37241;SDS011;23135;51.078;12.108;2022-08-01T05:07:02;0.20;;;0.20;;
37241;SDS011;23135;51.078;12.108;2022-08-01T05:09:28;0.95;;;0.10;;
37241;SDS011;23135;51.078;12.108;2022-08-01T05:11:53;0.20;;;0.20;;
37241;SDS011;23135;51.078;12.108;2022-08-01T05:14:19;0.00;;;0.00;;
37241;SDS011;23135;51.078;12.108;2022-08-01T05:16:46;0.93;;;0.00;;
37241;SDS011;23135;51.078;12.108;2022-08-01T05:19:11;0.95;;;0.00;;
37241;SDS011;23135;51.078;12.108;2022-08-01T05:21:37;0.98;;;0.00;;
37241;SDS011;23135;51.078;12.108;2022-08-01T05:24:04;1.55;;;0.10;;
37241;SDS011;23135;51.078;12.108;2022-08-01T05:26:30;0.28;;;0.00;;
37241;SDS011;23135;51.078;12.108;2022-08-01T05:28:55;0.20;;;0.10;;
37241;SDS011;23135;51.078;12.108;2022-08-01T05:31:21;0.13;;;0.10;;
37241;SDS011;23135;51.078;12.108;2022-08-01T05:33:46;0.63;;;0.20;;
37241;SDS011;23135;51.078;12.108;2022-08-01T05:36:12;0.13;;;0.10;;
37241;SDS011;23135;51.078;12.108;2022-08-01T05:38:38;2.45;;;1.27;;
37241;SDS011;23135;51.078;12.108;2022-08-01T05:41:03;0.52;;;0.10;;
37241;SDS011;23135;51.078;12.108;2022-08-01T05:43:29;0.30;;;0.05;;
37241;SDS011;23135;51.078;12.108;2022-08-01T05:45:55;1.00;;;0.00;;
37241;SDS011;23135;51.078;12.108;2022-08-01T05:48:20;0.63;;;0.00;;
37241;SDS011;23135;51.078;12.108;2022-08-01T05:50:46;0.38;;;0.20;;
37241;SDS011;23135;51.078;12.108;2022-08-01T05:53:12;0.25;;;0.10;;
37241;SDS011;23135;51.078;12.108;2022-08-01T05:55:38;1.65;;;0.30;;
37241;SDS011;23135;51.078;12.108;2022-08-01T05:58:04;1.35;;;0.17;;
37241;SDS011;23135;51.078;12.108;2022-08-01T06:00:29;4.82;;;0.50;;
37241;SDS011;23135;51.078;12.108;2022-08-01T06:02:55;1.17;;;0.20;;
37241;SDS011;23135;51.078;12.108;2022-08-01T06:05:21;1.50;;;0.60;;
37241;SDS011;23135;51.078;12.108;2022-08-01T06:07:46;0.98;;;0.30;;
37241;SDS011;23135;51.078;12.108;2022-08-01T06:10:12;0.20;;;0.20;;
37241;SDS011;23135;51.078;12.108;2022-08-01T06:12:37;6.93;;;0.50;;
37241;SDS011;23135;51.078;12.108;2022-08-01T06:15:07;3.95;;;0.43;;
37241;SDS011;23135;51.078;12.108;2022-08-01T06:17:33;0.75;;;0.70;;
37241;SDS011;23135;51.078;12.108;2022-08-01T06:19:58;1.15;;;0.38;;
37241;SDS011;23135;51.078;12.108;2022-08-01T06:22:24;1.08;;;0.40;;
37241;SDS011;23135;51.078;12.108;2022-08-01T06:24:50;0.85;;;0.50;;
37241;SDS011;23135;51.078;12.108;2022-08-01T06:27:16;1.95;;;0.20;;
37241;SDS011;23135;51.078;12.108;2022-08-01T06:29:41;0.98;;;0.50;;
37241;SDS011;23135;51.078;12.108;2022-08-01T06:32:08;4.22;;;0.60;;
37241;SDS011;23135;51.078;12.108;2022-08-01T06:34:34;2.00;;;0.50;;
37241;SDS011;23135;51.078;12.108;2022-08-01T06:37:00;3.42;;;0.40;;
37241;SDS011;23135;51.078;12.108;2022-08-01T06:39:25;1.88;;;0.95;;
37241;SDS011;23135;51.078;12.108;2022-08-01T06:41:51;0.47;;;0.47;;
37241;SDS011;23135;51.078;12.108;2022-08-01T06:44:17;7.43;;;1.48;;
37241;SDS011;23135;51.078;12.108;2022-08-01T06:46:42;1.73;;;0.73;;
37241;SDS011;23135;51.078;12.108;2022-08-01T06:49:08;1.73;;;0.57;;
37241;SDS011;23135;51.078;12.108;2022-08-01T06:51:33;0.95;;;0.82;;
37241;SDS011;23135;51.078;12.108;2022-08-01T06:53:59;1.10;;;0.50;;
37241;SDS011;23135;51.078;12.108;2022-08-01T06:56:24;2.67;;;0.57;;
37241;SDS011;23135;51.078;12.108;2022-08-01T06:58:50;2.88;;;0.65;;
37241;SDS011;23135;51.078;12.108;2022-08-01T07:01:16;1.25;;;0.52;;
37241;SDS011;23135;51.078;12.108;2022-08-01T07:03:41;2.78;;;0.85;;
37241;SDS011;23135;51.078;12.108;2022-08-01T07:06:07;1.23;;;0.77;;
37241;SDS011;23135;51.078;12.108;2022-08-01T07:08:32;0.70;;;0.65;;
37241;SDS011;23135;51.078;12.108;2022-08-01T07:10:58;0.60;;;0.40;;
37241;SDS011;23135;51.078;12.108;2022-08-01T07:13:27;0.60;;;0.57;;
37241;SDS011;23135;51.078;12.108;2022-08-01T07:15:55;2.23;;;0.87;;
37241;SDS011;23135;51.078;12.108;2022-08-01T07:18:21;1.52;;;0.50;;
37241;SDS011;23135;51.078;12.108;2022-08-01T07:20:47;1.58;;;0.25;;
37241;SDS011;23135;51.078;12.108;2022-08-01T07:23:13;0.52;;;0.13;;
37241;SDS011;23135;51.078;12.108;2022-08-01T07:25:39;1.45;;;0.17;;
37241;SDS011;23135;51.078;12.108;2022-08-01T07:28:04;0.98;;;0.10;;
37241;SDS011;23135;51.078;12.108;2022-08-01T07:30:30;0.10;;;0.00;;
37241;SDS011;23135;51.078;12.108;2022-08-01T07:32:56;4.25;;;0.30;;
37241;SDS011;23135;51.078;12.108;2022-08-01T07:35:21;3.08;;;0.00;;
37241;SDS011;23135;51.078;12.108;2022-08-01T07:37:47;0.20;;;0.10;;
37241;SDS011;23135;51.078;12.108;2022-08-01T07:40:13;2.05;;;0.17;;
37241;SDS011;23135;51.078;12.108;2022-08-01T07:42:38;0.32;;;0.08;;
37241;SDS011;23135;51.078;12.108;2022-08-01T07:45:08;0.95;;;0.10;;
37241;SDS011;23135;51.078;12.108;2022-08-01T07:47:34;1.45;;;0.00;;
37241;SDS011;23135;51.078;12.108;2022-08-01T07:50:00;0.15;;;0.00;;
37241;SDS011;23135;51.078;12.108;2022-08-01T07:52:27;0.45;;;0.00;;
37241;SDS011;23135;51.078;12.108;2022-08-01T07:54:53;0.98;;;0.00;;
37241;SDS011;23135;51.078;12.108;2022-08-01T07:57:18;0.35;;;0.17;;
37241;SDS011;23135;51.078;12.108;2022-08-01T07:59:44;0.00;;;0.00;;
37241;SDS011;23135;51.078;12.108;2022-08-01T08:02:10;0.73;;;0.00;;
37241;SDS011;23135;51.078;12.108;2022-08-01T08:04:35;0.25;;;0.00;;
37241;SDS011;23135;51.078;12.108;2022-08-01T08:07:01;0.80;;;0.00;;
37241;SDS011;23135;51.078;12.108;2022-08-01T08:09:26;1.20;;;0.00;;
37241;SDS011;23135;51.078;12.108;2022-08-01T08:11:52;1.45;;;0.00;;
37241;SDS011;23135;51.078;12.108;2022-08-01T08:14:18;0.52;;;0.30;;
37241;SDS011;23135;51.078;12.108;2022-08-01T08:16:44;0.00;;;0.00;;
37241;SDS011;23135;51.078;12.108;2022-08-01T08:19:10;1.75;;;0.00;;
37241;SDS011;23135;51.078;12.108;2022-08-01T08:21:36;1.25;;;0.00;;
37241;SDS011;23135;51.078;12.108;2022-08-01T08:24:02;1.00;;;0.00;;
37241;SDS011;23135;51.078;12.108;2022-08-01T08:26:47;1.35;;;0.00;;
37241;SDS011;23135;51.078;12.108;2022-08-01T08:29:13;0.32;;;0.10;;
37241;SDS011;23135;51.078;12.108;2022-08-01T08:31:40;0.00;;;0.00;;
37241;SDS011;23135;51.078;12.108;2022-08-01T08:34:06;0.00;;;0.00;;
37241;SDS011;23135;51.078;12.108;2022-08-01T08:36:32;0.00;;;0.00;;
37241;SDS011;23135;51.078;12.108;2022-08-01T08:38:58;0.28;;;0.00;;
37241;SDS011;23135;51.078;12.108;2022-08-01T08:41:28;0.65;;;0.00;;
37241;SDS011;23135;51.078;12.108;2022-08-01T08:43:55;0.93;;;0.00;;
37241;SDS011;23135;51.078;12.108;2022-08-01T08:46:23;0.00;;;0.00;;
37241;SDS011;23135;51.078;12.108;2022-08-01T08:48:49;0.17;;;0.00;;
37241;SDS011;23135;51.078;12.108;2022-08-01T08:51:16;0.52;;;0.00;;
37241;SDS011;23135;51.078;12.108;2022-08-01T08:53:44;1.05;;;0.00;;
37241;SDS011;23135;51.078;12.108;2022-08-01T08:56:12;0.65;;;0.00;;
37241;SDS011;23135;51.078;12.108;2022-08-01T08:58:38;0.00;;;0.00;;
37241;SDS011;23135;51.078;12.108;2022-08-01T09:01:08;2.17;;;0.00;;
37241;SDS011;23135;51.078;12.108;2022-08-01T09:03:35;0.10;;;0.00;;
37241;SDS011;23135;51.078;12.108;2022-08-01T09:06:03;0.57;;;0.05;;
37241;SDS011;23135;51.078;12.108;2022-08-01T09:08:28;0.05;;;0.00;;
37241;SDS011;23135;51.078;12.108;2022-08-01T09:10:54;0.10;;;0.00;;
37241;SDS011;23135;51.078;12.108;2022-08-01T09:13:20;0.00;;;0.00;;
37241;SDS011;23135;51.078;12.108;2022-08-01T09:15:47;0.00;;;0.00;;
37241;SDS011;23135;51.078;12.108;2022-08-01T09:26:11;0.52;;;0.00;;
37241;SDS011;23135;51.078;12.108;2022-08-01T09:28:37;2.20;;;0.00;;
37241;SDS011;23135;51.078;12.108;2022-08-01T09:31:22;0.00;;;0.00;;
37241;SDS011;23135;51.078;12.108;2022-08-01T09:33:55;0.00;;;0.00;;
37241;SDS011;23135;51.078;12.108;2022-08-01T09:36:27;0.00;;;0.00;;
37241;SDS011;23135;51.078;12.108;2022-08-01T09:39:12;0.47;;;0.00;;
37241;SDS011;23135;51.078;12.108;2022-08-01T09:41:39;0.10;;;0.00;;
37241;SDS011;23135;51.078;12.108;2022-08-01T09:44:05;0.00;;;0.00;;
37241;SDS011;23135;51.078;12.108;2022-08-01T09:46:31;0.00;;;0.00;;
37241;SDS011;23135;51.078;12.108;2022-08-01T09:49:02;1.13;;;0.00;;
37241;SDS011;23135;51.078;12.108;2022-08-01T09:51:29;0.32;;;0.13;;
37241;SDS011;23135;51.078;12.108;2022-08-01T09:53:57;0.20;;;0.00;;
37241;SDS011;23135;51.078;12.108;2022-08-01T09:56:24;0.00;;;0.00;;
37241;SDS011;23135;51.078;12.108;2022-08-01T09:58:57;0.00;;;0.00;;
37241;SDS011;23135;51.078;12.108;2022-08-01T10:01:24;0.40;;;0.00;;
37241;SDS011;23135;51.078;12.108;2022-08-01T10:04:04;0.13;;;0.00;;
37241;SDS011;23135;51.078;12.108;2022-08-01T10:06:31;0.05;;;0.00;;
37241;SDS011;23135;51.078;12.108;2022-08-01T10:08:57;0.20;;;0.00;;
37241;SDS011;23135;51.078;12.108;2022-08-01T10:11:22;0.70;;;0.00;;
37241;SDS011;23135;51.078;12.108;2022-08-01T10:13:48;1.95;;;0.00;;
37241;SDS011;23135;51.078;12.108;2022-08-01T10:16:14;0.47;;;0.00;;
37241;SDS011;23135;51.078;12.108;2022-08-01T10:18:40;0.00;;;0.00;;
37241;SDS011;23135;51.078;12.108;2022-08-01T10:21:07;0.00;;;0.00;;
37241;SDS011;23135;51.078;12.108;2022-08-01T10:23:34;0.00;;;0.00;;
37241;SDS011;23135;51.078;12.108;2022-08-01T10:26:00;0.20;;;0.00;;
37241;SDS011;23135;51.078;12.108;2022-08-01T10:28:26;0.00;;;0.00;;
37241;SDS011;23135;51.078;12.108;2022-08-01T10:30:55;1.17;;;0.00;;
37241;SDS011;23135;51.078;12.108;2022-08-01T10:33:22;0.43;;;0.00;;
37241;SDS011;23135;51.078;12.108;2022-08-01T10:35:48;0.10;;;0.00;;
37241;SDS011;23135;51.078;12.108;2022-08-01T10:38:15;0.45;;;0.00;;
37241;SDS011;23135;51.078;12.108;2022-08-01T10:40:42;1.67;;;0.00;;
37241;SDS011;23135;51.078;12.108;2022-08-01T10:43:12;0.00;;;0.00;;
37241;SDS011;23135;51.078;12.108;2022-08-01T10:45:39;1.43;;;0.00;;
37241;SDS011;23135;51.078;12.108;2022-08-01T10:50:45;0.03;;;0.00;;
37241;SDS011;23135;51.078;12.108;2022-08-01T10:53:17;0.52;;;0.00;;
37241;SDS011;23135;51.078;12.108;2022-08-01T10:55:46;0.52;;;0.00;;
37241;SDS011;23135;51.078;12.108;2022-08-01T10:58:13;0.47;;;0.00;;
37241;SDS011;23135;51.078;12.108;2022-08-01T11:00:44;0.00;;;0.00;;
37241;SDS011;23135;51.078;12.108;2022-08-01T11:03:10;1.77;;;0.00;;
37241;SDS011;23135;51.078;12.108;2022-08-01T11:05:35;0.10;;;0.00;;
37241;SDS011;23135;51.078;12.108;2022-08-01T11:08:12;0.00;;;0.00;;
37241;SDS011;23135;51.078;12.108;2022-08-01T11:10:47;0.13;;;0.00;;
37241;SDS011;23135;51.078;12.108;2022-08-01T11:13:13;0.43;;;0.08;;
37241;SDS011;23135;51.078;12.108;2022-08-01T11:15:38;0.55;;;0.00;;
37241;SDS011;23135;51.078;12.108;2022-08-01T11:20:59;0.00;;;0.00;;
37241;SDS011;23135;51.078;12.108;2022-08-01T11:23:26;0.30;;;0.00;;
37241;SDS011;23135;51.078;12.108;2022-08-01T11:28:19;0.00;;;0.00;;
37241;SDS011;23135;51.078;12.108;2022-08-01T11:30:49;0.10;;;0.00;;
37241;SDS011;23135;51.078;12.108;2022-08-01T11:33:17;0.57;;;0.00;;
37241;SDS011;23135;51.078;12.108;2022-08-01T11:38:38;0.10;;;0.00;;
37241;SDS011;23135;51.078;12.108;2022-08-01T11:41:10;0.00;;;0.00;;
37241;SDS011;23135;51.078;12.108;2022-08-01T11:43:41;0.00;;;0.00;;
37241;SDS011;23135;51.078;12.108;2022-08-01T11:49:43;0.00;;;0.00;;
37241;SDS011;23135;51.078;12.108;2022-08-01T11:54:53;1.88;;;0.00;;
37241;SDS011;23135;51.078;12.108;2022-08-01T11:57:20;0.35;;;0.00;;
37241;SDS011;23135;51.078;12.108;2022-08-01T11:59:51;0.00;;;0.00;;
37241;SDS011;23135;51.078;12.108;2022-08-01T12:05:04;0.47;;;0.00;;
37241;SDS011;23135;51.078;12.108;2022-08-01T12:07:32;0.22;;;0.00;;
37241;SDS011;23135;51.078;12.108;2022-08-01T12:09:59;6.28;;;0.00;;
37241;SDS011;23135;51.078;12.108;2022-08-01T12:12:30;1.00;;;0.00;;
37241;SDS011;23135;51.078;12.108;2022-08-01T12:15:01;0.40;;;0.00;;
37241;SDS011;23135;51.078;12.108;2022-08-01T12:19:55;0.00;;;0.00;;
37241;SDS011;23135;51.078;12.108;2022-08-01T12:22:22;0.00;;;0.00;;
37241;SDS011;23135;51.078;12.108;2022-08-01T12:24:48;0.43;;;0.00;;
37241;SDS011;23135;51.078;12.108;2022-08-01T12:27:23;0.28;;;0.00;;
37241;SDS011;23135;51.078;12.108;2022-08-01T12:29:50;0.10;;;0.00;;
37241;SDS011;23135;51.078;12.108;2022-08-01T12:34:55;0.00;;;0.00;;
37241;SDS011;23135;51.078;12.108;2022-08-01T12:37:38;0.13;;;0.00;;
37241;SDS011;23135;51.078;12.108;2022-08-01T12:42:42;0.00;;;0.00;;
37241;SDS011;23135;51.078;12.108;2022-08-01T12:45:10;0.43;;;0.00;;
37241;SDS011;23135;51.078;12.108;2022-08-01T12:47:38;0.00;;;0.00;;
37241;SDS011;23135;51.078;12.108;2022-08-01T12:50:08;0.00;;;0.00;;
37241;SDS011;23135;51.078;12.108;2022-08-01T12:52:39;0.00;;;0.00;;
37241;SDS011;23135;51.078;12.108;2022-08-01T12:55:06;1.52;;;0.00;;
37241;SDS011;23135;51.078;12.108;2022-08-01T12:57:34;0.00;;;0.00;;
37241;SDS011;23135;51.078;12.108;2022-08-01T13:00:15;0.00;;;0.00;;
37241;SDS011;23135;51.078;12.108;2022-08-01T13:03:13;2.42;;;0.00;;
37241;SDS011;23135;51.078;12.108;2022-08-01T13:08:16;0.00;;;0.00;;
37241;SDS011;23135;51.078;12.108;2022-08-01T13:10:44;1.55;;;0.00;;
37241;SDS011;23135;51.078;12.108;2022-08-01T13:13:09;1.65;;;0.00;;
37241;SDS011;23135;51.078;12.108;2022-08-01T13:15:37;0.20;;;0.00;;
37241;SDS011;23135;51.078;12.108;2022-08-01T13:20:48;0.05;;;0.00;;
37241;SDS011;23135;51.078;12.108;2022-08-01T13:23:18;0.90;;;0.00;;
37241;SDS011;23135;51.078;12.108;2022-08-01T13:25:48;0.00;;;0.00;;
37241;SDS011;23135;51.078;12.108;2022-08-01T13:28:23;3.55;;;0.00;;
37241;SDS011;23135;51.078;12.108;2022-08-01T13:30:51;0.00;;;0.00;;
37241;SDS011;23135;51.078;12.108;2022-08-01T13:33:17;1.27;;;0.00;;
37241;SDS011;23135;51.078;12.108;2022-08-01T13:35:43;0.08;;;0.00;;
37241;SDS011;23135;51.078;12.108;2022-08-01T13:38:08;0.00;;;0.00;;
37241;SDS011;23135;51.078;12.108;2022-08-01T13:40:34;0.00;;;0.00;;
37241;SDS011;23135;51.078;12.108;2022-08-01T13:42:59;0.10;;;0.00;;
37241;SDS011;23135;51.078;12.108;2022-08-01T13:45:25;0.00;;;0.00;;
37241;SDS011;23135;51.078;12.108;2022-08-01T13:47:50;0.10;;;0.00;;
37241;SDS011;23135;51.078;12.108;2022-08-01T13:50:16;0.00;;;0.00;;
37241;SDS011;23135;51.078;12.108;2022-08-01T13:52:41;0.77;;;0.00;;
37241;SDS011;23135;51.078;12.108;2022-08-01T13:55:07;4.55;;;0.00;;
37241;SDS011;23135;51.078;12.108;2022-08-01T13:57:33;1.27;;;0.00;;
37241;SDS011;23135;51.078;12.108;2022-08-01T13:59:58;0.30;;;0.00;;
37241;SDS011;23135;51.078;12.108;2022-08-01T14:02:24;1.55;;;0.00;;
37241;SDS011;23135;51.078;12.108;2022-08-01T14:04:53;0.30;;;0.00;;
37241;SDS011;23135;51.078;12.108;2022-08-01T14:07:20;2.28;;;0.00;;
37241;SDS011;23135;51.078;12.108;2022-08-01T14:09:46;0.10;;;0.10;;
37241;SDS011;23135;51.078;12.108;2022-08-01T14:12:11;0.25;;;0.00;;
37241;SDS011;23135;51.078;12.108;2022-08-01T14:14:37;1.55;;;0.00;;
37241;SDS011;23135;51.078;12.108;2022-08-01T14:17:03;0.47;;;0.00;;
37241;SDS011;23135;51.078;12.108;2022-08-01T14:19:29;2.15;;;0.00;;
37241;SDS011;23135;51.078;12.108;2022-08-01T14:21:55;0.75;;;0.00;;
37241;SDS011;23135;51.078;12.108;2022-08-01T14:24:22;0.90;;;0.00;;
37241;SDS011;23135;51.078;12.108;2022-08-01T14:26:48;2.63;;;0.00;;
37241;SDS011;23135;51.078;12.108;2022-08-01T14:29:14;0.00;;;0.00;;
37241;SDS011;23135;51.078;12.108;2022-08-01T14:31:39;0.00;;;0.00;;
37241;SDS011;23135;51.078;12.108;2022-08-01T14:34:05;0.22;;;0.00;;
37241;SDS011;23135;51.078;12.108;2022-08-01T14:36:31;1.38;;;0.00;;
37241;SDS011;23135;51.078;12.108;2022-08-01T14:38:56;2.45;;;0.00;;
37241;SDS011;23135;51.078;12.108;2022-08-01T14:41:22;0.00;;;0.00;;
37241;SDS011;23135;51.078;12.108;2022-08-01T14:43:48;0.00;;;0.00;;
37241;SDS011;23135;51.078;12.108;2022-08-01T14:46:13;1.83;;;0.00;;
37241;SDS011;23135;51.078;12.108;2022-08-01T14:48:39;1.17;;;0.00;;
37241;SDS011;23135;51.078;12.108;2022-08-01T14:51:05;0.00;;;0.00;;
37241;SDS011;23135;51.078;12.108;2022-08-01T14:53:32;1.27;;;0.00;;
37241;SDS011;23135;51.078;12.108;2022-08-01T14:55:58;2.58;;;0.00;;
37241;SDS011;23135;51.078;12.108;2022-08-01T14:58:24;0.43;;;0.00;;
37241;SDS011;23135;51.078;12.108;2022-08-01T15:00:49;0.00;;;0.00;;
37241;SDS011;23135;51.078;12.108;2022-08-01T15:03:19;1.85;;;0.00;;
37241;SDS011;23135;51.078;12.108;2022-08-01T15:05:45;3.53;;;0.30;;
37241;SDS011;23135;51.078;12.108;2022-08-01T15:08:10;0.10;;;0.00;;
37241;SDS011;23135;51.078;12.108;2022-08-01T15:10:36;0.00;;;0.00;;
37241;SDS011;23135;51.078;12.108;2022-08-01T15:13:02;0.00;;;0.00;;
37241;SDS011;23135;51.078;12.108;2022-08-01T15:15:27;0.80;;;0.00;;
37241;SDS011;23135;51.078;12.108;2022-08-01T15:17:53;0.20;;;0.00;;
37241;SDS011;23135;51.078;12.108;2022-08-01T15:20:19;1.75;;;0.00;;
37241;SDS011;23135;51.078;12.108;2022-08-01T15:22:45;0.00;;;0.00;;
37241;SDS011;23135;51.078;12.108;2022-08-01T15:25:10;0.85;;;0.00;;
37241;SDS011;23135;51.078;12.108;2022-08-01T15:27:36;1.65;;;0.00;;
37241;SDS011;23135;51.078;12.108;2022-08-01T15:30:02;0.05;;;0.00;;